Kirby, Vermont
Current Conditions -  °F | °C
As of 11:35 PM on Friday 19 Dec 2014 (Local Time) from KCDA Reporting Station
Clear Clear  
Wind Chill: -9°   Ceiling: Unl
Heat Index: -9°   Visibility: 10mi
Dew Point: -12°   Wind: 3mph
Humidity: 81%   Direction: 320°NW
Pressure: 30.16"   Gusts: NA
Location:  44.4417°N, 71.859°W
Report Text: KCDA 200435Z AUTO 32003KT 10SM CLR M09/M12 A3016 RMK AO2 T10891116
Loading
Personal Weather Stations






























Interactive Weather Map New forecast layout! Learn more

10-Day Weather Forecast

Advertisements
Track Severe Weather on mobile